Diretta Meteo Dubai, Emirati Arabi Unitimartedì 20 agosto ore 05:00

Mappa
Sereno 32 °C Sereno 24 Ore: T.min 32 T.max 43
Ponente Est/Sud-Est Km/h 16.7 Punto di rugiada: 22 °C Umidità: 55% Visibilità: 10 Km
Il sole sorge alle: 05:53 Il sole tramonta alle: 18:50
20 Agosto 2019 05:00 tempo osservato: Sereno Sereno 32 55 1004 vento: Nord E/SE 16.7
20 Agosto 2019 04:00 tempo osservato: Sereno Sereno 33 55 1002 vento: Nord E 9.3
20 Agosto 2019 03:00 tempo osservato: Sereno Sereno 34 52 1002 vento: Nord E 9.3
20 Agosto 2019 02:00 tempo osservato: Sereno Sereno 35 47 1002 vento: Nord N 9.3
20 Agosto 2019 01:00 tempo osservato: Sereno Sereno 35 47 1002 vento: Nord N 5.5
20 Agosto 2019 00:00 tempo osservato: Sereno Sereno 35 47 1003 vento: Nord E 13
19 Agosto 2019 23:00 tempo osservato: Sereno Sereno 36 44 1003 vento: Nord E/NE 16.7
19 Agosto 2019 22:00 tempo osservato: Sereno Sereno 37 39 1003 vento: Nord E/NE 11.1
19 Agosto 2019 21:00 tempo osservato: Sereno Sereno 37 42 1003 vento: Nord NE 14.8
19 Agosto 2019 20:00 tempo osservato: Sereno Sereno 37 44 1002 vento: Nord N/NE 14.8
19 Agosto 2019 19:00 tempo osservato: Sereno Sereno 38 42 1001 vento: Nord N/NE 18.5
19 Agosto 2019 18:00 tempo osservato: Poco Nuvoloso Poco Nuvoloso 38 47 1001 vento: Nord N/NE 22.2
19 Agosto 2019 17:00 tempo osservato: Sereno Sereno 40 42 1001 vento: Nord N/NE 22.2
19 Agosto 2019 16:00 tempo osservato: Poco Nuvoloso Poco Nuvoloso 41 38 1001 vento: Nord N/NE 24
19 Agosto 2019 15:00 tempo osservato: Sereno Sereno 41 33 1001 vento: Nord N 27.8
19 Agosto 2019 14:00 tempo osservato: Sereno Sereno 43 23 1001 vento: Nord N 11.1
19 Agosto 2019 13:00 tempo osservato: Sereno Sereno 42 28 1002 vento: Nord N 11.1
19 Agosto 2019 12:00 tempo osservato: Sereno Sereno 41 30 1003 vento: Nord N 11.1
19 Agosto 2019 11:00 tempo osservato: Sereno Sereno 39 35 1003 vento: Nord S 13
19 Agosto 2019 10:00 tempo osservato: Sereno Sereno 37 42 1004 vento: Nord S/SE 22.2
19 Agosto 2019 09:00 tempo osservato: Sereno Sereno 36 47 1004 vento: Nord SE 24
19 Agosto 2019 08:00 tempo osservato: Sereno Sereno 33 59 1003 vento: Nord E/SE 24
19 Agosto 2019 06:00 tempo osservato: Sereno Sereno 33 52 1001 vento: Nord E 13